Time,TemperatureF,DewpointF,PressureIn,WindDirection,WindDirectionDegrees,WindSpeedMPH,WindSpeedGustMPH,Humidity,HourlyPrecipIn,Conditions,Clouds,dailyrainin,SoftwareType,DateUTC
2013-03-13 00:00:00,41.0,35.3,29.84,NW,315,2.0,6.0,80,0.00,,,-99.99,WeatherLink 5.7,2013-03-13 04:00:00,
2013-03-13 00:10:00,40.9,35.5,29.86,NW,315,3.0,6.0,81,0.00,,,-99.99,WeatherLink 5.7,2013-03-13 04:10:00,
2013-03-13 00:29:00,41.0,35.3,29.85,WNW,292,3.0,8.0,80,0.00,,,-99.99,WeatherLink 5.7,2013-03-13 04:29:00,
2013-03-13 00:30:00,41.0,35.0,29.85,NW,315,3.0,5.0,79,0.00,,,-99.99,WeatherLink 5.7,2013-03-13 04:30:00,
2013-03-13 00:40:00,40.7,34.7,29.85,WNW,292,3.0,6.0,79,0.00,,,-99.99,WeatherLink 5.7,2013-03-13 04:40:00,
2013-03-13 00:59:00,40.2,34.2,29.85,WNW,292,3.0,5.0,79,0.00,,,-99.99,WeatherLink 5.7,2013-03-13 04:59:00,
2013-03-13 01:09:00,39.7,33.7,29.86,NW,315,3.0,6.0,79,0.00,,,-99.99,WeatherLink 5.7,2013-03-13 05:09:00,
2013-03-13 01:10:00,39.4,33.1,29.86,NW,315,3.0,5.0,78,0.00,,,-99.99,WeatherLink 5.7,2013-03-13 05:10:00,
2013-03-13 01:29:00,39.2,33.5,29.86,NW,315,2.0,5.0,80,0.00,,,-99.99,WeatherLink 5.7,2013-03-13 05:29:00,
2013-03-13 01:39:00,39.2,33.2,29.86,NW,315,2.0,4.0,79,0.00,,,-99.99,WeatherLink 5.7,2013-03-13 05:39:00,
2013-03-13 01:40:00,39.3,33.6,29.86,NW,315,1.0,5.0,80,0.00,,,-99.99,WeatherLink 5.7,2013-03-13 05:40:00,
2013-03-13 01:59:00,39.4,33.7,29.86,NW,315,2.0,4.0,80,0.00,,,-99.99,WeatherLink 5.7,2013-03-13 05:59:00,
2013-03-13 02:09:00,39.5,33.8,29.86,NW,315,3.0,5.0,80,0.00,,,-99.99,WeatherLink 5.7,2013-03-13 06:09:00,
2013-03-13 02:10:00,39.4,33.7,29.86,NW,315,2.0,4.0,80,0.00,,,-99.99,WeatherLink 5.7,2013-03-13 06:10:00,
2013-03-13 02:20:00,39.4,33.7,29.86,NW,315,3.0,6.0,80,0.00,,,-99.99,WeatherLink 5.7,2013-03-13 06:20:00,
2013-03-13 02:39:00,39.5,33.8,29.87,NW,315,2.0,6.0,80,0.00,,,-99.99,WeatherLink 5.7,2013-03-13 06:39:00,
2013-03-13 02:49:00,39.4,34.1,29.87,WNW,292,2.0,5.0,81,0.00,,,-99.99,WeatherLink 5.7,2013-03-13 06:49:00,
2013-03-13 02:50:00,39.4,34.1,29.86,NW,315,3.0,5.0,81,0.00,,,-99.99,WeatherLink 5.7,2013-03-13 06:50:00,
2013-03-13 03:09:00,39.2,34.5,29.86,WNW,292,2.0,4.0,83,0.00,,,-99.99,WeatherLink 5.7,2013-03-13 07:09:00,
2013-03-13 03:19:00,39.0,34.3,29.85,NW,315,2.0,6.0,83,0.00,,,-99.99,WeatherLink 5.7,2013-03-13 07:19:00,
2013-03-13 03:20:00,38.9,34.2,29.86,NW,315,2.0,5.0,83,0.00,,,-99.99,WeatherLink 5.7,2013-03-13 07:20:00,
2013-03-13 03:39:00,38.8,34.4,29.86,NW,315,1.0,5.0,84,0.00,,,-99.99,WeatherLink 5.7,2013-03-13 07:39:00,
2013-03-13 03:49:00,38.7,34.3,29.85,NW,315,1.0,3.0,84,0.00,,,-99.99,WeatherLink 5.7,2013-03-13 07:49:00,
2013-03-13 03:50:00,38.6,34.2,29.86,NNW,337,1.0,3.0,84,0.00,,,-99.99,WeatherLink 5.7,2013-03-13 07:50:00,
2013-03-13 04:09:00,38.5,34.1,29.86,NW,315,1.0,4.0,84,0.00,,,-99.99,WeatherLink 5.7,2013-03-13 08:09:00,
2013-03-13 04:19:00,38.3,33.9,29.85,WNW,292,2.0,4.0,84,0.00,,,-99.99,WeatherLink 5.7,2013-03-13 08:19:00,
2013-03-13 04:20:00,38.2,33.8,29.84,NW,315,2.0,5.0,84,0.00,,,-99.99,WeatherLink 5.7,2013-03-13 08:20:00,
2013-03-13 04:39:00,38.1,33.4,29.85,WNW,292,2.0,5.0,83,0.00,,,-99.99,WeatherLink 5.7,2013-03-13 08:39:00,
2013-03-13 04:50:00,37.9,33.2,29.85,NW,315,1.0,3.0,83,0.00,,,-99.99,WeatherLink 5.7,2013-03-13 08:50:00,
2013-03-13 05:09:00,37.1,32.4,29.86,NNW,337,0.0,1.0,83,0.00,,,-99.99,WeatherLink 5.7,2013-03-13 09:09:00,
2013-03-13 05:19:00,36.7,32.3,29.86,NNW,337,0.0,1.0,84,0.00,,,-99.99,WeatherLink 5.7,2013-03-13 09:19:00,
2013-03-13 05:20:00,36.5,32.1,29.86,North,-999,0.0,0.0,84,0.00,,,-99.99,WeatherLink 5.7,2013-03-13 09:20:00,
2013-03-13 05:39:00,36.2,32.1,29.86,North,-999,0.0,1.0,85,0.00,,,-99.99,WeatherLink 5.7,2013-03-13 09:39:00,
2013-03-13 05:49:00,35.7,31.3,29.87,North,-999,0.0,0.0,84,0.00,,,-99.99,WeatherLink 5.7,2013-03-13 09:49:00,
2013-03-13 05:59:00,35.3,31.2,29.87,North,-999,0.0,0.0,85,0.00,,,-99.99,WeatherLink 5.7,2013-03-13 09:59:00,
2013-03-13 06:00:00,35.0,30.9,29.87,North,-999,0.0,0.0,85,0.00,,,-99.99,WeatherLink 5.7,2013-03-13 10:00:00,
2013-03-13 06:19:00,34.7,30.7,29.87,North,-999,0.0,0.0,85,0.00,,,-99.99,WeatherLink 5.7,2013-03-13 10:19:00,
2013-03-13 06:29:00,34.5,30.7,29.87,North,-999,0.0,0.0,86,0.00,,,-99.99,WeatherLink 5.7,2013-03-13 10:29:00,
2013-03-13 06:39:00,34.2,30.4,29.87,North,-999,0.0,0.0,86,0.00,,,-99.99,WeatherLink 5.7,2013-03-13 10:39:00,
2013-03-13 06:40:00,33.9,30.4,29.87,North,-999,0.0,0.0,87,0.00,,,-99.99,WeatherLink 5.7,2013-03-13 10:40:00,
2013-03-13 06:59:00,33.6,30.1,29.87,North,-999,0.0,0.0,87,0.00,,,-99.99,WeatherLink 5.7,2013-03-13 10:59:00,
2013-03-13 07:09:00,33.3,30.1,29.87,North,-999,0.0,0.0,88,0.00,,,-99.99,WeatherLink 5.7,2013-03-13 11:09:00,
2013-03-13 07:19:00,33.0,29.8,29.87,North,-999,0.0,0.0,88,0.00,,,-99.99,WeatherLink 5.7,2013-03-13 11:19:00,
2013-03-13 07:20:00,32.8,29.6,29.88,North,-999,0.0,0.0,88,0.00,,,-99.99,WeatherLink 5.7,2013-03-13 11:20:00,
2013-03-13 07:39:00,32.6,29.4,29.88,North,-999,0.0,0.0,88,0.00,,,-99.99,WeatherLink 5.7,2013-03-13 11:39:00,
2013-03-13 07:49:00,32.5,29.3,29.88,North,-999,0.0,0.0,88,0.00,,,-99.99,WeatherLink 5.7,2013-03-13 11:49:00,
2013-03-13 07:50:00,32.4,29.5,29.89,North,-999,0.0,0.0,89,0.00,,,-99.99,WeatherLink 5.7,2013-03-13 11:50:00,
2013-03-13 08:00:00,32.7,29.8,29.89,North,-999,0.0,0.0,89,0.00,,,-99.99,WeatherLink 5.7,2013-03-13 12:00:00,
2013-03-13 08:19:00,33.3,30.4,29.88,North,-999,0.0,0.0,89,0.00,,,-99.99,WeatherLink 5.7,2013-03-13 12:19:00,
2013-03-13 08:30:00,33.8,30.9,29.88,North,-999,0.0,0.0,89,0.00,,,-99.99,WeatherLink 5.7,2013-03-13 12:30:00,
2013-03-13 08:49:00,35.0,31.8,29.88,North,0,0.0,2.0,88,0.00,,,-99.99,WeatherLink 5.7,2013-03-13 12:49:00,
2013-03-13 08:59:00,35.6,31.8,29.88,North,0,0.0,2.0,86,0.00,,,-99.99,WeatherLink 5.7,2013-03-13 12:59:00,
2013-03-13 09:09:00,36.1,31.7,29.89,North,0,0.0,2.0,84,0.00,,,-99.99,WeatherLink 5.7,2013-03-13 13:09:00,
2013-03-13 09:10:00,37.0,30.5,29.88,North,0,1.0,3.0,77,0.00,,,-99.99,WeatherLink 5.7,2013-03-13 13:10:00,
2013-03-13 09:20:00,38.0,30.4,29.89,North,0,1.0,4.0,74,0.00,,,-99.99,WeatherLink 5.7,2013-03-13 13:20:00,
2013-03-13 09:39:00,38.9,30.3,29.88,NW,315,2.0,4.0,71,0.00,,,-99.99,WeatherLink 5.7,2013-03-13 13:39:00,
2013-03-13 09:49:00,40.2,30.8,29.88,NW,315,1.0,4.0,69,0.00,,,-99.99,WeatherLink 5.7,2013-03-13 13:49:00,
2013-03-13 09:50:00,41.4,31.3,29.88,North,0,2.0,6.0,67,0.00,,,-99.99,WeatherLink 5.7,2013-03-13 13:50:00,
2013-03-13 10:09:00,42.6,31.7,29.88,NNW,337,1.0,3.0,65,0.00,,,-99.99,WeatherLink 5.7,2013-03-13 14:09:00,
2013-03-13 10:19:00,43.5,31.3,29.88,WNW,292,2.0,5.0,62,0.00,,,-99.99,WeatherLink 5.7,2013-03-13 14:19:00,
2013-03-13 10:29:00,43.3,31.1,29.88,North,0,2.0,5.0,62,0.00,,,-99.99,WeatherLink 5.7,2013-03-13 14:29:00,
2013-03-13 10:30:00,43.6,30.2,29.87,NW,315,2.0,4.0,59,0.00,,,-99.99,WeatherLink 5.7,2013-03-13 14:30:00,
2013-03-13 10:49:00,44.1,30.7,29.86,North,0,2.0,6.0,59,0.00,,,-99.99,WeatherLink 5.7,2013-03-13 14:49:00,
2013-03-13 10:59:00,44.3,29.1,29.87,West,270,1.0,4.0,55,0.00,,,-99.99,WeatherLink 5.7,2013-03-13 14:59:00,
2013-03-13 11:00:00,45.2,29.1,29.86,NW,315,2.0,5.0,53,0.00,,,-99.99,WeatherLink 5.7,2013-03-13 15:00:00,
2013-03-13 11:19:00,45.9,30.6,29.87,WNW,292,2.0,6.0,55,0.00,,,-99.99,WeatherLink 5.7,2013-03-13 15:19:00,
2013-03-13 11:29:00,46.5,31.2,29.87,NNW,337,2.0,5.0,55,0.00,,,-99.99,WeatherLink 5.7,2013-03-13 15:29:00,
2013-03-13 11:30:00,46.8,31.0,29.87,NNW,337,3.0,7.0,54,0.00,,,-99.99,WeatherLink 5.7,2013-03-13 15:30:00,
2013-03-13 11:49:00,47.5,30.7,29.86,North,0,3.0,6.0,52,0.00,,,-99.99,WeatherLink 5.7,2013-03-13 15:49:00,
2013-03-13 11:59:00,48.6,30.8,29.87,North,0,2.0,6.0,50,0.00,,,-99.99,WeatherLink 5.7,2013-03-13 15:59:00,
2013-03-13 12:09:00,49.5,31.1,29.86,North,0,2.0,6.0,49,0.00,,,-99.99,WeatherLink 5.7,2013-03-13 16:09:00,
2013-03-13 12:20:00,49.6,30.7,29.85,North,0,2.0,7.0,48,0.00,,,-99.99,WeatherLink 5.7,2013-03-13 16:20:00,
2013-03-13 12:29:00,49.7,29.7,29.85,NNW,337,3.0,8.0,46,0.00,,,-99.99,WeatherLink 5.7,2013-03-13 16:29:00,
2013-03-13 12:39:00,49.6,29.6,29.85,NNW,337,4.0,8.0,46,0.00,,,-99.99,WeatherLink 5.7,2013-03-13 16:39:00,
2013-03-13 12:40:00,49.9,29.9,29.84,North,0,3.0,9.0,46,0.00,,,-99.99,WeatherLink 5.7,2013-03-13 16:40:00,
2013-03-13 12:50:00,50.0,30.0,29.84,NW,315,3.0,7.0,46,0.00,,,-99.99,WeatherLink 5.7,2013-03-13 16:50:00,
2013-03-13 13:09:00,50.6,28.3,29.84,North,0,3.0,8.0,42,0.00,,,-99.99,WeatherLink 5.7,2013-03-13 17:09:00,
2013-03-13 13:19:00,51.2,27.1,29.84,North,0,3.0,7.0,39,0.00,,,-99.99,WeatherLink 5.7,2013-03-13 17:19:00,
2013-03-13 13:30:00,50.9,27.4,29.83,North,0,3.0,7.0,40,0.00,,,-99.99,WeatherLink 5.7,2013-03-13 17:30:00,
2013-03-13 13:39:00,50.6,27.1,29.83,NNW,337,3.0,9.0,40,0.00,,,-99.99,WeatherLink 5.7,2013-03-13 17:39:00,
2013-03-13 13:49:00,50.0,26.6,29.83,NNW,337,3.0,7.0,40,0.00,,,-99.99,WeatherLink 5.7,2013-03-13 17:49:00,
2013-03-13 14:00:00,50.9,26.2,29.82,NNW,337,2.0,5.0,38,0.00,,,-99.99,WeatherLink 5.7,2013-03-13 18:00:00,
2013-03-13 14:09:00,49.6,25.6,29.82,NNW,337,1.0,5.0,39,0.00,,,-99.99,WeatherLink 5.7,2013-03-13 18:09:00,
2013-03-13 14:19:00,48.8,25.5,29.81,NW,315,3.0,9.0,40,0.00,,,-99.99,WeatherLink 5.7,2013-03-13 18:19:00,
2013-03-13 14:30:00,47.5,25.5,29.82,NW,315,2.0,5.0,42,0.00,,,-99.99,WeatherLink 5.7,2013-03-13 18:30:00,
2013-03-13 14:39:00,46.6,26.4,29.82,NW,315,3.0,7.0,45,0.00,,,-99.99,WeatherLink 5.7,2013-03-13 18:39:00,
2013-03-13 14:49:00,46.3,26.6,29.81,NW,315,2.0,5.0,46,0.00,,,-99.99,WeatherLink 5.7,2013-03-13 18:49:00,
2013-03-13 15:00:00,46.1,26.4,29.81,NW,315,2.0,7.0,46,0.00,,,-99.99,WeatherLink 5.7,2013-03-13 19:00:00,
2013-03-13 15:09:00,45.7,25.5,29.81,NW,315,2.0,9.0,45,0.00,,,-99.99,WeatherLink 5.7,2013-03-13 19:09:00,
2013-03-13 15:19:00,45.9,26.3,29.81,NW,315,3.0,7.0,46,0.00,,,-99.99,WeatherLink 5.7,2013-03-13 19:19:00,
2013-03-13 15:29:00,47.1,26.3,29.81,NNW,337,2.0,7.0,44,0.00,,,-99.99,WeatherLink 5.7,2013-03-13 19:29:00,
2013-03-13 15:39:00,46.4,25.6,29.81,NNW,337,4.0,9.0,44,0.00,,,-99.99,WeatherLink 5.7,2013-03-13 19:39:00,
2013-03-13 15:49:00,45.6,26.0,29.80,NW,315,1.0,7.0,46,0.00,,,-99.99,WeatherLink 5.7,2013-03-13 19:49:00,
2013-03-13 15:59:00,45.5,25.4,29.80,WNW,292,1.0,5.0,45,0.00,,,-99.99,WeatherLink 5.7,2013-03-13 19:59:00,
2013-03-13 16:09:00,45.5,25.9,29.80,North,0,1.0,5.0,46,0.00,,,-99.99,WeatherLink 5.7,2013-03-13 20:09:00,
2013-03-13 16:19:00,45.5,25.9,29.81,North,0,1.0,6.0,46,0.00,,,-99.99,WeatherLink 5.7,2013-03-13 20:19:00,
2013-03-13 16:29:00,45.7,26.6,29.80,North,0,2.0,5.0,47,0.00,,,-99.99,WeatherLink 5.7,2013-03-13 20:29:00,
2013-03-13 16:40:00,46.0,26.9,29.81,NW,315,3.0,7.0,47,0.00,,,-99.99,WeatherLink 5.7,2013-03-13 20:40:00,
2013-03-13 16:49:00,45.5,27.4,29.81,North,0,2.0,8.0,49,0.00,,,-99.99,WeatherLink 5.7,2013-03-13 20:49:00,
2013-03-13 16:59:00,45.2,27.2,29.81,NW,315,2.0,5.0,49,0.00,,,-99.99,WeatherLink 5.7,2013-03-13 20:59:00,
2013-03-13 17:09:00,45.0,27.9,29.82,West,270,3.0,8.0,51,0.00,,,-99.99,WeatherLink 5.7,2013-03-13 21:09:00,
2013-03-13 17:20:00,44.7,27.7,29.81,NW,315,3.0,6.0,51,0.00,,,-99.99,WeatherLink 5.7,2013-03-13 21:20:00,
2013-03-13 17:29:00,44.2,28.1,29.82,NW,315,2.0,7.0,53,0.00,,,-99.99,WeatherLink 5.7,2013-03-13 21:29:00,
2013-03-13 17:39:00,43.5,29.3,29.83,NW,315,4.0,10.0,57,0.00,,,-99.99,WeatherLink 5.7,2013-03-13 21:39:00,
2013-03-13 17:49:00,43.0,29.2,29.83,NW,315,2.0,6.0,58,0.00,,,-99.99,WeatherLink 5.7,2013-03-13 21:49:00,
2013-03-13 17:59:00,42.8,29.0,29.83,NW,315,2.0,4.0,58,0.00,,,-99.99,WeatherLink 5.7,2013-03-13 21:59:00,
2013-03-13 18:09:00,42.6,29.3,29.83,North,0,1.0,4.0,59,0.00,,,-99.99,WeatherLink 5.7,2013-03-13 22:09:00,
2013-03-13 18:19:00,42.3,29.4,29.83,NNE,22,1.0,4.0,60,0.00,,,-99.99,WeatherLink 5.7,2013-03-13 22:19:00,
2013-03-13 18:29:00,41.8,28.9,29.84,West,270,1.0,2.0,60,0.00,,,-99.99,WeatherLink 5.7,2013-03-13 22:29:00,
2013-03-13 18:39:00,41.4,28.5,29.83,NW,315,1.0,3.0,60,0.00,,,-99.99,WeatherLink 5.7,2013-03-13 22:39:00,
2013-03-13 18:49:00,41.0,28.6,29.83,NW,315,0.0,2.0,61,0.00,,,-99.99,WeatherLink 5.7,2013-03-13 22:49:00,
2013-03-13 19:00:00,40.3,28.7,29.83,WNW,292,0.0,4.0,63,0.00,,,-99.99,WeatherLink 5.7,2013-03-13 23:00:00,
2013-03-13 19:09:00,39.4,28.6,29.84,West,270,0.0,2.0,65,0.00,,,-99.99,WeatherLink 5.7,2013-03-13 23:09:00,
2013-03-13 19:19:00,38.7,27.9,29.84,West,270,0.0,1.0,65,0.00,,,-99.99,WeatherLink 5.7,2013-03-13 23:19:00,
2013-03-13 19:29:00,38.0,27.6,29.84,West,270,0.0,2.0,66,0.00,,,-99.99,WeatherLink 5.7,2013-03-13 23:29:00,
2013-03-13 19:40:00,37.4,27.1,29.84,West,270,0.0,3.0,66,0.00,,,-99.99,WeatherLink 5.7,2013-03-13 23:40:00,
2013-03-13 19:49:00,37.0,26.7,29.84,West,270,0.0,2.0,66,0.00,,,-99.99,WeatherLink 5.7,2013-03-13 23:49:00,
2013-03-13 19:59:00,36.5,26.6,29.84,SSW,202,0.0,2.0,67,0.00,,,-99.99,WeatherLink 5.7,2013-03-13 23:59:00,
2013-03-13 20:09:00,36.2,26.6,29.85,WNW,292,0.0,2.0,68,0.00,,,-99.99,WeatherLink 5.7,2013-03-14 00:09:00,
2013-03-13 20:19:00,35.9,25.3,29.85,WNW,292,0.0,1.0,65,0.00,,,-99.99,WeatherLink 5.7,2013-03-14 00:19:00,
2013-03-13 20:29:00,35.7,24.7,29.85,WNW,292,0.0,1.0,64,0.00,,,-99.99,WeatherLink 5.7,2013-03-14 00:29:00,
2013-03-13 20:40:00,35.6,24.6,29.85,North,-999,0.0,1.0,64,0.00,,,-99.99,WeatherLink 5.7,2013-03-14 00:40:00,
2013-03-13 20:49:00,35.5,24.1,29.85,North,-999,0.0,1.0,63,0.00,,,-99.99,WeatherLink 5.7,2013-03-14 00:49:00,
2013-03-13 20:59:00,35.5,24.1,29.86,North,-999,0.0,0.0,63,0.00,,,-99.99,WeatherLink 5.7,2013-03-14 00:59:00,
2013-03-13 21:09:00,35.5,24.5,29.86,WNW,292,0.0,3.0,64,0.00,,,-99.99,WeatherLink 5.7,2013-03-14 01:09:00,
2013-03-13 21:20:00,35.2,23.5,29.86,NNW,337,2.0,6.0,62,0.00,,,-99.99,WeatherLink 5.7,2013-03-14 01:20:00,
2013-03-13 21:29:00,35.5,24.1,29.86,NW,315,1.0,5.0,63,0.00,,,-99.99,WeatherLink 5.7,2013-03-14 01:29:00,
2013-03-13 21:39:00,35.4,24.4,29.86,NNW,337,2.0,5.0,64,0.00,,,-99.99,WeatherLink 5.7,2013-03-14 01:39:00,
2013-03-13 21:50:00,35.4,24.4,29.87,NW,315,2.0,8.0,64,0.00,,,-99.99,WeatherLink 5.7,2013-03-14 01:50:00,
2013-03-13 21:59:00,35.4,24.0,29.87,NW,315,3.0,7.0,63,0.00,,,-99.99,WeatherLink 5.7,2013-03-14 01:59:00,
2013-03-13 22:09:00,35.3,24.3,29.88,NW,315,3.0,5.0,64,0.00,,,-99.99,WeatherLink 5.7,2013-03-14 02:09:00,
2013-03-13 22:19:00,35.1,23.8,29.88,NW,315,3.0,5.0,63,0.00,,,-99.99,WeatherLink 5.7,2013-03-14 02:19:00,
2013-03-13 22:29:00,34.9,23.9,29.88,NW,315,2.0,5.0,64,0.00,,,-99.99,WeatherLink 5.7,2013-03-14 02:29:00,
2013-03-13 22:39:00,34.5,23.9,29.88,NW,315,2.0,5.0,65,0.00,,,-99.99,WeatherLink 5.7,2013-03-14 02:39:00,
2013-03-13 22:49:00,34.3,24.1,29.89,NW,315,2.0,5.0,66,0.00,,,-99.99,WeatherLink 5.7,2013-03-14 02:49:00,
2013-03-13 22:59:00,34.0,23.8,29.88,NW,315,2.0,6.0,66,0.00,,,-99.99,WeatherLink 5.7,2013-03-14 02:59:00,
2013-03-13 23:09:00,33.9,23.4,29.88,NW,315,3.0,6.0,65,0.00,,,-99.99,WeatherLink 5.7,2013-03-14 03:09:00,
2013-03-13 23:19:00,33.7,23.5,29.89,NW,315,2.0,6.0,66,0.00,,,-99.99,WeatherLink 5.7,2013-03-14 03:19:00,
2013-03-13 23:30:00,33.5,23.0,29.89,NW,315,2.0,5.0,65,0.00,,,-99.99,WeatherLink 5.7,2013-03-14 03:30:00,
2013-03-13 23:39:00,33.2,23.1,29.88,NW,315,1.0,4.0,66,0.00,,,-99.99,WeatherLink 5.7,2013-03-14 03:39:00,
2013-03-13 23:49:00,32.8,23.0,29.88,West,270,1.0,5.0,67,0.00,,,-99.99,WeatherLink 5.7,2013-03-14 03:49:00,
2013-03-13 23:59:00,32.6,22.1,29.88,NW,315,3.0,7.0,65,0.00,,,-99.99,WeatherLink 5.7,2013-03-14 03:59:00,